Time;durP1;ratioP1;P1;durP2;ratioP2;P2;SDS_P1;SDS_P2;PMS_P1;PMS_P2;Temp;Humidity;BMP_temperature;BMP_pressure;BME280_temperature;BME280_humidity;BME280_pressure;Samples;Min_cycle;Max_cycle;Signal;HPM_P1;HPM_P2
2023/04/09 00:02:19;;;;;;;42.70;21.42;;;;;;;;;;5062484;28;20035;-63
2023/04/09 00:04:44;;;;;;;42.47;21.55;;;;;;;;;;5054042;28;20033;-62
2023/04/09 00:07:10;;;;;;;40.63;21.35;;;;;;;;;;5059044;28;20376;-61
2023/04/09 00:09:35;;;;;;;42.90;22.15;;;;;;;;;;5066019;28;20029;-62
2023/04/09 00:12:01;;;;;;;42.63;21.88;;;;;;;;;;5069866;28;20044;-62
2023/04/09 00:14:26;;;;;;;44.97;22.17;;;;;;;;;;5063100;28;20482;-62
2023/04/09 00:16:52;;;;;;;46.00;22.65;;;;;;;;;;5060070;28;20040;-60
2023/04/09 00:19:17;;;;;;;46.28;21.50;;;;;;;;;;5051550;28;20040;-63
2023/04/09 00:21:43;;;;;;;44.95;22.42;;;;;;;;;;5050226;28;20398;-62
2023/04/09 00:24:08;;;;;;;42.95;22.35;;;;;;;;;;5051607;28;20020;-64
2023/04/09 00:26:34;;;;;;;47.95;21.10;;;;;;;;;;5073594;28;20036;-64
2023/04/09 00:28:59;;;;;;;43.00;20.05;;;;;;;;;;5072147;28;20487;-63
2023/04/09 00:31:25;;;;;;;40.33;19.90;;;;;;;;;;5062679;28;20029;-63
2023/04/09 00:33:50;;;;;;;43.15;20.48;;;;;;;;;;5058881;28;20036;-62
2023/04/09 00:36:16;;;;;;;42.97;20.58;;;;;;;;;;5053942;28;20103;-63
2023/04/09 00:38:41;;;;;;;44.53;22.30;;;;;;;;;;5072848;28;20112;-63
2023/04/09 00:41:06;;;;;;;44.42;21.13;;;;;;;;;;5073974;28;20025;-63
2023/04/09 00:43:32;;;;;;;50.95;21.90;;;;;;;;;;5072243;28;20036;-63
2023/04/09 00:45:59;;;;;;;42.38;21.00;;;;;;;;;;5073050;28;20078;-62
2023/04/09 00:48:25;;;;;;;45.30;19.83;;;;;;;;;;5074052;28;20032;-63
2023/04/09 00:50:50;;;;;;;41.63;19.42;;;;;;;;;;5074054;28;20432;-63
2023/04/09 00:53:16;;;;;;;43.65;21.55;;;;;;;;;;5073262;28;20044;-63
2023/04/09 00:55:42;;;;;;;42.08;20.83;;;;;;;;;;5073435;28;20123;-62
2023/04/09 00:58:07;;;;;;;42.15;20.17;;;;;;;;;;5073705;28;20443;-62
2023/04/09 01:00:33;;;;;;;43.25;20.42;;;;;;;;;;5062469;28;20051;-62
2023/04/09 01:02:59;;;;;;;47.35;22.33;;;;;;;;;;5093817;28;20028;-61
2023/04/09 01:05:47;;;;;;;43.22;20.63;;;;;;;;;;5081278;28;20021;-62
2023/04/09 01:08:49;;;;;;;42.60;20.70;;;;;;;;;;5073399;28;20036;-61
2023/04/09 01:11:49;;;;;;;44.53;20.17;;;;;;;;;;5066286;28;20117;-62
2023/04/09 01:14:28;;;;;;;45.25;20.38;;;;;;;;;;5053073;28;20505;-61
2023/04/09 01:17:05;;;;;;;41.70;19.40;;;;;;;;;;5072488;28;20036;-62
2023/04/09 01:19:57;;;;;;;41.97;19.90;;;;;;;;;;5073866;28;20043;-62
2023/04/09 01:22:39;;;;;;;46.45;20.83;;;;;;;;;;5063717;28;20454;-63
2023/04/09 01:25:30;;;;;;;40.75;19.90;;;;;;;;;;5073331;28;20041;-63
2023/04/09 01:28:15;;;;;;;40.25;20.08;;;;;;;;;;5072057;28;20107;-62
2023/04/09 01:30:46;;;;;;;44.67;20.02;;;;;;;;;;5073695;28;20059;-63
2023/04/09 01:33:13;;;;;;;42.80;20.80;;;;;;;;;;5072378;28;20442;-61
2023/04/09 01:35:41;;;;;;;45.22;20.45;;;;;;;;;;5072619;28;20051;-63
2023/04/09 01:38:07;;;;;;;46.17;20.67;;;;;;;;;;5069728;28;20036;-61
2023/04/09 01:40:33;;;;;;;40.78;20.52;;;;;;;;;;5073671;28;20048;-61
2023/04/09 01:43:01;;;;;;;40.00;19.58;;;;;;;;;;5056660;28;20122;-61
2023/04/09 01:45:27;;;;;;;40.95;19.33;;;;;;;;;;5053513;28;20025;-63
2023/04/09 01:47:54;;;;;;;42.05;19.73;;;;;;;;;;5053594;28;20037;-62
2023/04/09 01:50:19;;;;;;;46.80;21.52;;;;;;;;;;5053269;28;20115;-62
2023/04/09 01:52:46;;;;;;;41.08;19.52;;;;;;;;;;5067003;28;20119;-63
2023/04/09 01:55:11;;;;;;;46.28;20.42;;;;;;;;;;5070254;28;20387;-62
2023/04/09 01:57:36;;;;;;;42.58;20.63;;;;;;;;;;5072195;28;20470;-64
2023/04/09 02:00:03;;;;;;;40.72;19.27;;;;;;;;;;5072290;28;20035;-61
2023/04/09 02:02:44;;;;;;;40.25;18.92;;;;;;;;;;5060018;28;20037;-61
2023/04/09 02:05:13;;;;;;;44.92;20.35;;;;;;;;;;5061748;28;20497;-63
2023/04/09 02:07:49;;;;;;;37.10;19.20;;;;;;;;;;5073027;28;20032;-63
2023/04/09 02:10:16;;;;;;;40.28;19.38;;;;;;;;;;5068087;28;20619;-61
2023/04/09 02:12:47;;;;;;;40.45;19.83;;;;;;;;;;5070704;28;20432;-62
2023/04/09 02:15:13;;;;;;;45.10;20.23;;;;;;;;;;5072227;28;20031;-63
2023/04/09 02:17:39;;;;;;;39.40;19.80;;;;;;;;;;5060412;28;20025;-63
2023/04/09 02:20:05;;;;;;;44.83;21.02;;;;;;;;;;5068280;28;20103;-63
2023/04/09 02:22:31;;;;;;;43.90;20.35;;;;;;;;;;5080771;28;20032;-61
2023/04/09 02:24:56;;;;;;;43.85;19.15;;;;;;;;;;5071089;28;20383;-61
2023/04/09 02:27:21;;;;;;;42.30;20.48;;;;;;;;;;5071946;28;20029;-61
2023/04/09 02:29:47;;;;;;;46.60;21.73;;;;;;;;;;5069450;28;20387;-62
2023/04/09 02:32:12;;;;;;;46.75;21.33;;;;;;;;;;5068848;28;20035;-63
2023/04/09 02:34:38;;;;;;;43.17;20.58;;;;;;;;;;5067810;28;20516;-63
2023/04/09 02:37:03;;;;;;;49.10;21.25;;;;;;;;;;5063152;28;20029;-63
2023/04/09 02:39:29;;;;;;;48.63;22.00;;;;;;;;;;5052271;28;20090;-62
2023/04/09 02:41:55;;;;;;;53.55;21.77;;;;;;;;;;5087355;28;20024;-63
2023/04/09 02:44:20;;;;;;;49.97;21.80;;;;;;;;;;5069645;28;20079;-63
2023/04/09 02:46:47;;;;;;;48.92;20.70;;;;;;;;;;5069400;28;20029;-64
2023/04/09 02:49:13;;;;;;;52.65;23.17;;;;;;;;;;5060911;28;20028;-63
2023/04/09 02:51:38;;;;;;;52.17;22.27;;;;;;;;;;5067621;28;20024;-63
2023/04/09 02:54:04;;;;;;;45.85;21.23;;;;;;;;;;5064848;28;20378;-63
2023/04/09 02:56:29;;;;;;;48.60;22.13;;;;;;;;;;5068970;28;20032;-63
2023/04/09 02:58:54;;;;;;;45.72;21.23;;;;;;;;;;5069053;28;20110;-62
2023/04/09 03:01:20;;;;;;;50.08;22.05;;;;;;;;;;5059377;28;20598;-63
2023/04/09 03:03:46;;;;;;;52.55;22.73;;;;;;;;;;5061629;28;20036;-62
2023/04/09 03:06:11;;;;;;;53.95;23.38;;;;;;;;;;5069430;28;20037;-62
2023/04/09 03:08:37;;;;;;;47.28;23.00;;;;;;;;;;5068376;28;20028;-63
2023/04/09 03:11:02;;;;;;;52.05;22.85;;;;;;;;;;5062696;28;20036;-62
2023/04/09 03:13:28;;;;;;;55.70;23.33;;;;;;;;;;5058728;28;20021;-63
2023/04/09 03:15:53;;;;;;;52.45;22.55;;;;;;;;;;5054395;28;20086;-62
2023/04/09 03:18:19;;;;;;;49.50;22.90;;;;;;;;;;5067461;28;20021;-63
2023/04/09 03:20:45;;;;;;;50.70;23.95;;;;;;;;;;5071106;28;20063;-63
2023/04/09 03:23:10;;;;;;;55.63;23.63;;;;;;;;;;5063233;28;20168;-62
2023/04/09 03:25:36;;;;;;;58.80;23.65;;;;;;;;;;5066817;28;20455;-62
2023/04/09 03:28:02;;;;;;;55.47;24.08;;;;;;;;;;5067899;28;20036;-61
2023/04/09 03:30:27;;;;;;;55.72;23.45;;;;;;;;;;5067641;28;20498;-63
2023/04/09 03:32:53;;;;;;;58.90;24.75;;;;;;;;;;5064042;28;20033;-63
2023/04/09 03:35:18;;;;;;;56.72;23.85;;;;;;;;;;5068371;28;20075;-63
2023/04/09 03:37:43;;;;;;;57.38;25.40;;;;;;;;;;5058362;28;20048;-63
2023/04/09 03:40:10;;;;;;;57.17;25.45;;;;;;;;;;5068967;28;20474;-63
2023/04/09 03:42:36;;;;;;;59.28;24.73;;;;;;;;;;5062663;28;20044;-63
2023/04/09 03:45:02;;;;;;;63.30;24.88;;;;;;;;;;5057243;28;20029;-62
2023/04/09 03:47:27;;;;;;;60.30;25.25;;;;;;;;;;5051524;28;20052;-62
2023/04/09 03:49:53;;;;;;;60.10;25.40;;;;;;;;;;5057836;28;20033;-63
2023/04/09 03:52:18;;;;;;;59.58;25.27;;;;;;;;;;5061700;28;20029;-63
2023/04/09 03:54:44;;;;;;;61.83;25.08;;;;;;;;;;5067096;28;20037;-63
2023/04/09 03:57:09;;;;;;;56.63;25.33;;;;;;;;;;5068479;28;20565;-63
2023/04/09 03:59:35;;;;;;;63.22;25.83;;;;;;;;;;5066933;28;20025;-64
2023/04/09 04:02:00;;;;;;;61.75;24.77;;;;;;;;;;5070919;28;20394;-65
2023/04/09 04:04:26;;;;;;;55.90;25.45;;;;;;;;;;5073132;28;20035;-63
2023/04/09 04:06:53;;;;;;;58.88;25.95;;;;;;;;;;5066056;28;20033;-63
2023/04/09 04:09:19;;;;;;;57.10;25.27;;;;;;;;;;5071421;28;20033;-63
2023/04/09 04:11:44;;;;;;;65.10;26.73;;;;;;;;;;5074591;28;20037;-63
2023/04/09 04:14:10;;;;;;;64.85;27.48;;;;;;;;;;5069989;28;20044;-63
2023/04/09 04:16:35;;;;;;;66.18;29.08;;;;;;;;;;5067677;28;20024;-63
2023/04/09 04:19:00;;;;;;;66.18;28.50;;;;;;;;;;5074199;28;20037;-63
2023/04/09 04:21:26;;;;;;;60.10;27.35;;;;;;;;;;5073173;28;20115;-63
2023/04/09 04:23:51;;;;;;;64.97;27.60;;;;;;;;;;5073190;28;20126;-63
2023/04/09 04:26:17;;;;;;;67.47;28.38;;;;;;;;;;5072331;28;20109;-63
2023/04/09 04:28:42;;;;;;;68.07;27.50;;;;;;;;;;5070521;28;20028;-62
2023/04/09 04:31:09;;;;;;;65.05;28.00;;;;;;;;;;5071483;28;20428;-63
2023/04/09 04:33:35;;;;;;;73.38;29.67;;;;;;;;;;5072189;28;20059;-63
2023/04/09 04:36:05;;;;;;;72.85;27.73;;;;;;;;;;5071122;28;20474;-63
2023/04/09 04:38:31;;;;;;;73.68;28.77;;;;;;;;;;5061098;28;20454;-63
2023/04/09 04:40:56;;;;;;;65.45;29.08;;;;;;;;;;5072751;28;20123;-63
2023/04/09 04:43:22;;;;;;;62.88;27.67;;;;;;;;;;5071899;28;20417;-63
2023/04/09 04:45:47;;;;;;;67.13;28.80;;;;;;;;;;5067815;28;20029;-64
2023/04/09 04:48:12;;;;;;;64.32;26.65;;;;;;;;;;5068688;28;20044;-64
2023/04/09 04:50:38;;;;;;;62.35;27.20;;;;;;;;;;5068393;28;20142;-64
2023/04/09 04:53:03;;;;;;;61.30;27.30;;;;;;;;;;5072278;28;20470;-63
2023/04/09 04:55:28;;;;;;;64.68;27.17;;;;;;;;;;5070115;28;20024;-63
2023/04/09 04:57:54;;;;;;;60.38;27.48;;;;;;;;;;5062420;28;20036;-63
2023/04/09 05:00:19;;;;;;;69.35;28.85;;;;;;;;;;5052839;28;20078;-64
2023/04/09 05:02:44;;;;;;;66.18;27.85;;;;;;;;;;5053675;28;20044;-62
2023/04/09 05:05:10;;;;;;;70.25;28.30;;;;;;;;;;5068084;28;20474;-62
2023/04/09 05:07:35;;;;;;;69.22;28.33;;;;;;;;;;5072973;28;20120;-63
2023/04/09 05:10:01;;;;;;;68.03;28.80;;;;;;;;;;5062048;28;20462;-61
2023/04/09 05:12:26;;;;;;;70.65;28.52;;;;;;;;;;5070021;28;20100;-63
2023/04/09 05:14:51;;;;;;;74.55;30.73;;;;;;;;;;5073408;28;20029;-63
2023/04/09 05:17:17;;;;;;;69.57;29.70;;;;;;;;;;5060269;28;20040;-63
2023/04/09 05:19:42;;;;;;;66.40;29.17;;;;;;;;;;5069236;28;20359;-63
2023/04/09 05:22:08;;;;;;;73.18;29.45;;;;;;;;;;5062885;28;20086;-62
2023/04/09 05:24:33;;;;;;;71.60;29.80;;;;;;;;;;5073233;28;20031;-63
2023/04/09 05:27:00;;;;;;;72.70;29.00;;;;;;;;;;5067056;28;20044;-63
2023/04/09 05:29:25;;;;;;;70.82;30.23;;;;;;;;;;5072419;28;20111;-62
2023/04/09 05:31:50;;;;;;;67.68;29.90;;;;;;;;;;5068922;28;20112;-62
2023/04/09 05:34:16;;;;;;;71.90;29.90;;;;;;;;;;5072442;28;20059;-61
2023/04/09 05:36:41;;;;;;;78.78;30.08;;;;;;;;;;5072095;28;20470;-62
2023/04/09 05:39:07;;;;;;;74.15;32.05;;;;;;;;;;5073721;28;20024;-61
2023/04/09 05:41:32;;;;;;;75.07;31.23;;;;;;;;;;5072127;28;20074;-61
2023/04/09 05:43:58;;;;;;;76.40;30.17;;;;;;;;;;5073840;28;20029;-61
2023/04/09 05:46:23;;;;;;;79.55;29.92;;;;;;;;;;5062720;28;20383;-62
2023/04/09 05:48:48;;;;;;;71.47;30.42;;;;;;;;;;5053526;28;20116;-63
2023/04/09 05:51:14;;;;;;;62.47;28.60;;;;;;;;;;5052935;28;20086;-63
2023/04/09 05:53:40;;;;;;;67.93;28.77;;;;;;;;;;5072860;28;20111;-63
2023/04/09 05:56:15;;;;;;;68.57;29.48;;;;;;;;;;5069599;28;20036;-67
2023/04/09 05:58:40;;;;;;;71.38;30.08;;;;;;;;;;5077877;28;20039;-68
2023/04/09 06:01:06;;;;;;;74.43;30.50;;;;;;;;;;5077128;28;20029;-67
2023/04/09 06:03:31;;;;;;;67.05;29.40;;;;;;;;;;5071557;28;20604;-67
2023/04/09 06:05:56;;;;;;;72.55;31.00;;;;;;;;;;5072604;28;20021;-67
2023/04/09 06:08:22;;;;;;;74.85;30.92;;;;;;;;;;5067541;28;20502;-65
2023/04/09 06:10:47;;;;;;;69.00;29.77;;;;;;;;;;5071581;28;20025;-65
2023/04/09 06:13:13;;;;;;;73.93;30.38;;;;;;;;;;5081400;28;20050;-62
2023/04/09 06:15:38;;;;;;;70.30;30.50;;;;;;;;;;5081102;28;20039;-65
2023/04/09 06:18:04;;;;;;;71.57;29.98;;;;;;;;;;5024159;28;20059;-66
2023/04/09 06:20:29;;;;;;;71.20;30.00;;;;;;;;;;5039927;28;20024;-65
2023/04/09 06:22:54;;;;;;;72.78;31.52;;;;;;;;;;5046430;28;20430;-67
2023/04/09 06:25:20;;;;;;;80.38;31.25;;;;;;;;;;5030023;28;20034;-67
2023/04/09 06:27:45;;;;;;;68.80;29.60;;;;;;;;;;5031191;28;20071;-67
2023/04/09 06:30:11;;;;;;;64.22;28.88;;;;;;;;;;5028914;28;20033;-62
2023/04/09 06:32:37;;;;;;;67.47;29.73;;;;;;;;;;5019245;28;20095;-65
2023/04/09 06:35:03;;;;;;;69.90;29.77;;;;;;;;;;5020487;28;20045;-65
2023/04/09 06:37:28;;;;;;;68.00;28.85;;;;;;;;;;5030893;28;20041;-64
2023/04/09 06:39:53;;;;;;;69.85;29.80;;;;;;;;;;5032330;28;20032;-65
2023/04/09 06:42:19;;;;;;;61.42;27.55;;;;;;;;;;5030635;28;20033;-65
2023/04/09 06:44:45;;;;;;;59.10;27.50;;;;;;;;;;5025309;28;20060;-65
2023/04/09 06:47:10;;;;;;;57.22;26.77;;;;;;;;;;5027784;28;20094;-62
2023/04/09 06:49:36;;;;;;;56.40;27.42;;;;;;;;;;5027368;28;20534;-65
2023/04/09 06:52:02;;;;;;;52.88;26.40;;;;;;;;;;5012909;28;20033;-65
2023/04/09 06:54:28;;;;;;;55.15;26.15;;;;;;;;;;5027258;28;20030;-65
2023/04/09 06:56:53;;;;;;;59.95;26.65;;;;;;;;;;5029015;28;20491;-65
2023/04/09 06:59:18;;;;;;;54.05;25.38;;;;;;;;;;5031447;28;20115;-66
2023/04/09 07:01:44;;;;;;;55.85;26.45;;;;;;;;;;5030316;28;20460;-67
2023/04/09 07:04:10;;;;;;;49.85;25.25;;;;;;;;;;5032569;28;20105;-66
2023/04/09 07:06:35;;;;;;;48.58;25.02;;;;;;;;;;5030038;28;20088;-66
2023/04/09 07:09:00;;;;;;;53.53;25.13;;;;;;;;;;5030587;28;20033;-67
2023/04/09 07:11:26;;;;;;;48.67;25.17;;;;;;;;;;5023674;28;20396;-65
2023/04/09 07:13:51;;;;;;;48.33;24.80;;;;;;;;;;5032085;28;20021;-67
2023/04/09 07:16:16;;;;;;;46.92;24.58;;;;;;;;;;5025239;28;20103;-65
2023/04/09 07:18:42;;;;;;;46.20;23.05;;;;;;;;;;5027960;28;20031;-65
2023/04/09 07:21:07;;;;;;;42.90;23.60;;;;;;;;;;5029871;28;20079;-67
2023/04/09 07:23:35;;;;;;;46.55;22.90;;;;;;;;;;5027248;28;20111;-68
2023/04/09 07:26:04;;;;;;;42.15;22.23;;;;;;;;;;5032213;28;20038;-69
2023/04/09 07:28:30;;;;;;;39.30;20.95;;;;;;;;;;5026216;28;20079;-67
2023/04/09 07:30:55;;;;;;;42.80;21.63;;;;;;;;;;5019470;28;20038;-66
2023/04/09 07:33:21;;;;;;;41.00;21.23;;;;;;;;;;5042441;28;20033;-64
2023/04/09 07:35:46;;;;;;;37.85;20.20;;;;;;;;;;5023949;28;20453;-66
2023/04/09 07:38:11;;;;;;;42.13;20.85;;;;;;;;;;5048173;28;20432;-64
2023/04/09 07:40:37;;;;;;;35.90;19.00;;;;;;;;;;5013174;28;20054;-65
2023/04/09 07:43:04;;;;;;;33.85;19.08;;;;;;;;;;5012473;28;20030;-67
2023/04/09 07:45:29;;;;;;;32.00;18.63;;;;;;;;;;5011276;28;20032;-66
2023/04/09 07:47:55;;;;;;;33.33;18.90;;;;;;;;;;5011200;28;20388;-67
2023/04/09 07:50:20;;;;;;;33.10;18.35;;;;;;;;;;5027710;28;20128;-67
2023/04/09 07:52:46;;;;;;;31.38;17.63;;;;;;;;;;5024786;28;20383;-66
2023/04/09 07:55:11;;;;;;;32.28;18.33;;;;;;;;;;5011666;28;20488;-66
2023/04/09 07:57:37;;;;;;;33.58;17.98;;;;;;;;;;5032775;28;20021;-67
2023/04/09 08:00:04;;;;;;;28.85;17.52;;;;;;;;;;5030534;28;20053;-65
2023/04/09 08:02:29;;;;;;;30.42;17.48;;;;;;;;;;5029366;28;20768;-66
2023/04/09 08:04:55;;;;;;;29.42;17.35;;;;;;;;;;5031751;28;20026;-65
2023/04/09 08:07:20;;;;;;;32.80;17.35;;;;;;;;;;5023799;28;20045;-65
2023/04/09 08:09:46;;;;;;;32.33;17.25;;;;;;;;;;5030902;28;20100;-66
2023/04/09 08:12:11;;;;;;;28.27;16.38;;;;;;;;;;5017713;28;20096;-66
2023/04/09 08:14:36;;;;;;;28.75;16.20;;;;;;;;;;5011003;28;20022;-66
2023/04/09 08:17:02;;;;;;;31.38;16.80;;;;;;;;;;5010984;28;20044;-65
2023/04/09 08:19:27;;;;;;;27.15;15.52;;;;;;;;;;5025047;28;20025;-67
2023/04/09 08:21:52;;;;;;;25.48;14.93;;;;;;;;;;5030537;28;20061;-66
2023/04/09 08:24:18;;;;;;;26.92;14.93;;;;;;;;;;5031245;28;20032;-62
2023/04/09 08:26:43;;;;;;;27.60;15.95;;;;;;;;;;5022411;28;20046;-66
2023/04/09 08:29:11;;;;;;;25.83;14.55;;;;;;;;;;5017014;28;20033;-67
2023/04/09 08:31:37;;;;;;;26.25;14.55;;;;;;;;;;5025459;28;20049;-65
2023/04/09 08:34:03;;;;;;;26.55;15.05;;;;;;;;;;5031138;28;20100;-65
2023/04/09 08:36:28;;;;;;;25.98;13.48;;;;;;;;;;5030015;28;20048;-65
2023/04/09 08:38:55;;;;;;;22.35;12.60;;;;;;;;;;5029097;28;20038;-67
2023/04/09 08:41:25;;;;;;;19.00;11.98;;;;;;;;;;5030622;28;20112;-63
2023/04/09 08:43:51;;;;;;;17.33;10.23;;;;;;;;;;5030215;28;20025;-66
2023/04/09 08:46:20;;;;;;;17.67;10.57;;;;;;;;;;5033389;28;20340;-65
2023/04/09 08:48:48;;;;;;;20.65;11.30;;;;;;;;;;5033319;28;20065;-64
2023/04/09 08:51:18;;;;;;;17.88;10.80;;;;;;;;;;5029781;28;20049;-67
2023/04/09 08:53:46;;;;;;;20.90;11.65;;;;;;;;;;5014300;28;20022;-66
2023/04/09 08:56:13;;;;;;;17.63;10.60;;;;;;;;;;5014822;28;20045;-67
2023/04/09 08:58:45;;;;;;;15.35;9.00;;;;;;;;;;5013777;28;20034;-67
2023/04/09 09:01:24;;;;;;;13.50;7.97;;;;;;;;;;5033225;28;20065;-66
2023/04/09 09:03:55;;;;;;;13.27;7.28;;;;;;;;;;5034638;28;20033;-66
2023/04/09 09:06:21;;;;;;;10.25;5.65;;;;;;;;;;5034095;28;20029;-63
2023/04/09 09:09:02;;;;;;;8.88;5.93;;;;;;;;;;5032871;28;20037;-66
2023/04/09 09:11:29;;;;;;;9.85;6.45;;;;;;;;;;5033669;28;20051;-66
2023/04/09 09:14:00;;;;;;;11.50;6.90;;;;;;;;;;5033989;28;20399;-66
2023/04/09 09:16:26;;;;;;;;;;;;;;;;;;5033826;28;20072;-65
2023/04/09 09:18:51;;;;;;;10.63;6.57;;;;;;;;;;5032401;28;19964;-66
2023/04/09 09:21:18;;;;;;;9.68;6.10;;;;;;;;;;5032594;28;20094;-67
2023/04/09 09:23:44;;;;;;;12.75;6.65;;;;;;;;;;5033526;28;20035;-66
2023/04/09 09:26:17;;;;;;;11.50;6.75;;;;;;;;;;5033970;28;20061;-68
2023/04/09 09:28:47;;;;;;;10.18;5.70;;;;;;;;;;5033235;28;20021;-67
2023/04/09 09:31:13;;;;;;;11.15;5.93;;;;;;;;;;5033177;28;20108;-69
2023/04/09 09:33:39;;;;;;;8.80;5.40;;;;;;;;;;5033306;28;20029;-68
2023/04/09 09:36:05;;;;;;;9.77;5.70;;;;;;;;;;5034062;28;20046;-68
2023/04/09 09:38:31;;;;;;;8.40;5.63;;;;;;;;;;5033078;28;20033;-66
2023/04/09 09:40:57;;;;;;;9.35;6.10;;;;;;;;;;5029418;28;20041;-66
2023/04/09 09:43:23;;;;;;;8.27;5.40;;;;;;;;;;5028319;28;20537;-63
2023/04/09 09:45:49;;;;;;;9.35;5.70;;;;;;;;;;5026768;28;20033;-66
2023/04/09 09:48:15;;;;;;;11.32;6.05;;;;;;;;;;5033741;28;20026;-66
2023/04/09 09:50:41;;;;;;;9.65;6.07;;;;;;;;;;5031376;28;20048;-66
2023/04/09 09:53:08;;;;;;;10.90;6.00;;;;;;;;;;5031318;28;20040;-66
2023/04/09 09:55:38;;;;;;;10.38;6.82;;;;;;;;;;5032389;28;20044;-65
2023/04/09 09:58:26;;;;;;;9.07;5.95;;;;;;;;;;5033393;28;20026;-66
2023/04/09 10:00:52;;;;;;;11.35;6.72;;;;;;;;;;5033204;28;20033;-66
2023/04/09 10:03:26;;;;;;;10.38;6.68;;;;;;;;;;5029265;28;20485;-65
2023/04/09 10:05:52;;;;;;;10.02;6.50;;;;;;;;;;5027754;28;20364;-66
2023/04/09 10:08:19;;;;;;;11.73;7.20;;;;;;;;;;5033256;28;20375;-66
2023/04/09 10:10:45;;;;;;;11.48;7.32;;;;;;;;;;5032263;28;20604;-66
2023/04/09 10:13:34;;;;;;;12.15;7.72;;;;;;;;;;5028364;28;20524;-66
2023/04/09 10:16:01;;;;;;;12.15;7.28;;;;;;;;;;5015094;28;20049;-66
2023/04/09 10:18:27;;;;;;;12.57;7.60;;;;;;;;;;5031625;28;20107;-63
2023/04/09 10:21:06;;;;;;;12.50;7.70;;;;;;;;;;5033047;28;20029;-66
2023/04/09 10:23:43;;;;;;;11.82;7.35;;;;;;;;;;5031229;28;20480;-65
2023/04/09 10:26:09;;;;;;;11.75;6.80;;;;;;;;;;5031848;28;20040;-65
2023/04/09 10:28:36;;;;;;;12.27;7.43;;;;;;;;;;5030483;28;20033;-66
2023/04/09 10:31:04;;;;;;;10.38;6.43;;;;;;;;;;5032352;28;20038;-65
2023/04/09 10:33:29;;;;;;;11.45;7.32;;;;;;;;;;5029877;28;20411;-64
2023/04/09 10:35:59;;;;;;;12.52;7.38;;;;;;;;;;5032482;28;20049;-68
2023/04/09 10:38:44;;;;;;;11.73;6.88;;;;;;;;;;5032464;28;20033;-62
2023/04/09 10:41:21;;;;;;;9.95;6.63;;;;;;;;;;5032757;28;20022;-66
2023/04/09 10:43:47;;;;;;;10.85;6.93;;;;;;;;;;5027526;28;20616;-65
2023/04/09 10:46:29;;;;;;;13.50;7.60;;;;;;;;;;5026420;28;20128;-66
2023/04/09 10:49:16;;;;;;;12.90;7.57;;;;;;;;;;5028084;28;20029;-66
2023/04/09 10:51:57;;;;;;;11.80;7.63;;;;;;;;;;5031591;28;20148;-68
2023/04/09 10:54:35;;;;;;;11.00;6.70;;;;;;;;;;5030642;28;20037;-65
2023/04/09 10:57:06;;;;;;;11.60;6.97;;;;;;;;;;5032549;28;20472;-65
2023/04/09 10:59:32;;;;;;;10.27;7.05;;;;;;;;;;5031318;28;20033;-65
2023/04/09 11:01:58;;;;;;;10.95;7.03;;;;;;;;;;5032224;28;20030;-66
2023/04/09 11:04:35;;;;;;;12.05;6.80;;;;;;;;;;5030633;28;20486;-64
2023/04/09 11:07:04;;;;;;;14.40;7.32;;;;;;;;;;5032427;28;20037;-66
2023/04/09 11:09:33;;;;;;;11.48;7.43;;;;;;;;;;5030583;28;20029;-63
2023/04/09 11:12:00;;;;;;;10.05;7.10;;;;;;;;;;5032168;28;20037;-66
2023/04/09 11:14:26;;;;;;;12.90;7.45;;;;;;;;;;5029610;28;20388;-63
2023/04/09 11:16:51;;;;;;;10.50;7.05;;;;;;;;;;5031171;28;20464;-66
2023/04/09 11:19:19;;;;;;;11.10;6.55;;;;;;;;;;5032103;28;20432;-66
2023/04/09 11:21:45;;;;;;;10.45;6.80;;;;;;;;;;5029879;28;20040;-66
2023/04/09 11:24:14;;;;;;;10.02;7.10;;;;;;;;;;5028533;28;20041;-66
2023/04/09 11:26:39;;;;;;;10.45;7.10;;;;;;;;;;5031184;28;20033;-65
2023/04/09 11:29:09;;;;;;;9.32;6.63;;;;;;;;;;5031916;28;20070;-66
2023/04/09 11:31:35;;;;;;;9.75;6.80;;;;;;;;;;5029280;28;20025;-66
2023/04/09 11:34:01;;;;;;;9.30;7.00;;;;;;;;;;5030540;28;20041;-66
2023/04/09 11:36:27;;;;;;;9.43;6.30;;;;;;;;;;5031848;28;20443;-66
2023/04/09 11:38:54;;;;;;;10.63;7.18;;;;;;;;;;5031251;28;20372;-66
2023/04/09 11:41:37;;;;;;;10.63;7.47;;;;;;;;;;5030436;28;20443;-65
2023/04/09 11:44:06;;;;;;;9.60;6.97;;;;;;;;;;5028459;28;20144;-67
2023/04/09 11:46:33;;;;;;;10.43;6.87;;;;;;;;;;5027082;28;20037;-64
2023/04/09 11:48:59;;;;;;;10.20;7.15;;;;;;;;;;5029433;28;20029;-66
2023/04/09 11:51:30;;;;;;;13.18;7.20;;;;;;;;;;5030334;28;20515;-66
2023/04/09 11:53:59;;;;;;;8.93;6.70;;;;;;;;;;5031415;28;20036;-66
2023/04/09 11:56:28;;;;;;;9.05;6.50;;;;;;;;;;5030252;28;20033;-66
2023/04/09 11:58:53;;;;;;;10.18;6.70;;;;;;;;;;5030801;28;20037;-66
2023/04/09 12:01:21;;;;;;;8.50;6.18;;;;;;;;;;5031575;28;20095;-66
2023/04/09 12:03:52;;;;;;;8.32;5.82;;;;;;;;;;5030843;28;20045;-66
2023/04/09 12:06:21;;;;;;;11.05;6.38;;;;;;;;;;5030372;28;20486;-66
2023/04/09 12:08:51;;;;;;;9.85;6.90;;;;;;;;;;5027843;28;20060;-66
2023/04/09 12:11:16;;;;;;;9.10;6.57;;;;;;;;;;5030444;28;20045;-67
2023/04/09 12:13:43;;;;;;;8.63;6.35;;;;;;;;;;5030444;28;20029;-66
2023/04/09 12:16:09;;;;;;;9.00;6.40;;;;;;;;;;5031569;28;20032;-66
2023/04/09 12:18:39;;;;;;;9.02;6.22;;;;;;;;;;5030678;28;20037;-66
2023/04/09 12:21:05;;;;;;;8.52;6.35;;;;;;;;;;5035091;28;20055;-67
2023/04/09 12:23:32;;;;;;;7.78;5.78;;;;;;;;;;5033926;28;20029;-63
2023/04/09 12:26:01;;;;;;;8.05;6.05;;;;;;;;;;5034991;28;20033;-67
2023/04/09 12:28:27;;;;;;;8.48;6.22;;;;;;;;;;5035174;28;20044;-67
2023/04/09 12:30:53;;;;;;;7.70;6.05;;;;;;;;;;5034395;28;20041;-66
2023/04/09 12:33:19;;;;;;;7.95;5.88;;;;;;;;;;5035416;28;20026;-67
2023/04/09 12:35:45;;;;;;;8.20;6.50;;;;;;;;;;5034027;28;20152;-66
2023/04/09 12:38:10;;;;;;;9.13;6.63;;;;;;;;;;5032382;28;20026;-66
2023/04/09 12:40:36;;;;;;;10.73;6.53;;;;;;;;;;5034493;28;20177;-65
2023/04/09 12:43:01;;;;;;;8.73;6.72;;;;;;;;;;5033978;28;20041;-66
2023/04/09 12:45:28;;;;;;;8.40;6.40;;;;;;;;;;5035689;28;20034;-66
2023/04/09 12:47:53;;;;;;;8.27;6.40;;;;;;;;;;5034836;28;20033;-66
2023/04/09 12:50:19;;;;;;;8.32;6.65;;;;;;;;;;5034966;28;20038;-66
2023/04/09 12:52:44;;;;;;;8.80;6.40;;;;;;;;;;5030712;28;20396;-67
2023/04/09 12:55:11;;;;;;;7.78;5.97;;;;;;;;;;5035059;28;20083;-67
2023/04/09 12:57:38;;;;;;;8.02;6.50;;;;;;;;;;5032531;28;20033;-63
2023/04/09 13:00:05;;;;;;;7.20;6.03;;;;;;;;;;5033291;28;20539;-67
2023/04/09 13:02:30;;;;;;;7.68;6.38;;;;;;;;;;5027104;28;20042;-64
2023/04/09 13:04:56;;;;;;;8.52;6.28;;;;;;;;;;5027674;28;20209;-65
2023/04/09 13:07:21;;;;;;;7.68;6.15;;;;;;;;;;5032283;28;20365;-64
2023/04/09 13:09:49;;;;;;;8.90;6.28;;;;;;;;;;5033543;28;20057;-65
2023/04/09 13:12:16;;;;;;;7.75;6.13;;;;;;;;;;5032871;28;20036;-64
2023/04/09 13:14:42;;;;;;;8.15;6.35;;;;;;;;;;5032442;28;20034;-65
2023/04/09 13:17:08;;;;;;;8.57;6.63;;;;;;;;;;5033656;28;20048;-63
2023/04/09 13:19:33;;;;;;;7.47;5.90;;;;;;;;;;5029710;28;20467;-62
2023/04/09 13:21:59;;;;;;;8.02;6.40;;;;;;;;;;5033454;28;20037;-65
2023/04/09 13:24:24;;;;;;;8.95;6.57;;;;;;;;;;5032913;28;20045;-65
2023/04/09 13:26:50;;;;;;;8.45;6.20;;;;;;;;;;5033476;28;20033;-66
2023/04/09 13:29:16;;;;;;;7.97;6.05;;;;;;;;;;5032773;28;20034;-65
2023/04/09 13:31:42;;;;;;;8.15;6.75;;;;;;;;;;5032241;28;20038;-65
2023/04/09 13:34:07;;;;;;;8.25;6.45;;;;;;;;;;5028921;28;20029;-64
2023/04/09 13:36:33;;;;;;;8.90;6.32;;;;;;;;;;5034020;28;20083;-65
2023/04/09 13:39:03;;;;;;;9.63;6.00;;;;;;;;;;5029294;28;20034;-64
2023/04/09 13:41:32;;;;;;;8.77;6.55;;;;;;;;;;5032351;28;20057;-64
2023/04/09 13:43:59;;;;;;;8.00;5.90;;;;;;;;;;5029033;28;20029;-65
2023/04/09 13:46:24;;;;;;;7.88;6.10;;;;;;;;;;5032649;28;20091;-67
2023/04/09 13:48:49;;;;;;;8.07;6.35;;;;;;;;;;5026290;28;20025;-63
2023/04/09 13:51:15;;;;;;;8.52;6.85;;;;;;;;;;5026427;28;20030;-66
2023/04/09 13:53:40;;;;;;;9.30;6.88;;;;;;;;;;5029964;28;20120;-66
2023/04/09 13:56:06;;;;;;;9.20;6.82;;;;;;;;;;5032513;28;20029;-66
2023/04/09 13:58:31;;;;;;;9.18;7.00;;;;;;;;;;5033621;28;20471;-67
2023/04/09 14:00:57;;;;;;;10.30;6.75;;;;;;;;;;5029668;28;20032;-65
2023/04/09 14:03:22;;;;;;;8.65;6.22;;;;;;;;;;5032832;28;20452;-65
2023/04/09 14:05:48;;;;;;;8.43;6.38;;;;;;;;;;5023183;28;20026;-66
2023/04/09 14:08:15;;;;;;;9.68;6.70;;;;;;;;;;5027907;28;20110;-68
2023/04/09 14:10:40;;;;;;;8.57;6.30;;;;;;;;;;5014828;28;20109;-64
2023/04/09 14:13:09;;;;;;;8.95;6.47;;;;;;;;;;5033208;28;20167;-65
2023/04/09 14:15:35;;;;;;;8.52;6.55;;;;;;;;;;5032260;28;20391;-67
2023/04/09 14:18:01;;;;;;;8.10;6.60;;;;;;;;;;5029465;28;20021;-65
2023/04/09 14:20:27;;;;;;;7.72;6.20;;;;;;;;;;5032016;28;20029;-64
2023/04/09 14:22:52;;;;;;;8.48;6.53;;;;;;;;;;5026075;28;20037;-65
2023/04/09 14:25:18;;;;;;;8.63;6.32;;;;;;;;;;5041833;28;20025;-67
2023/04/09 14:27:43;;;;;;;9.63;6.20;;;;;;;;;;5030571;28;20041;-66